sensor_id;sensor_type;location;lat;lon;timestamp;P1;durP1;ratioP1;P2;durP2;ratioP2
6376;SDS011;3221;48.858;10.128;2023-05-10T00:01:56;2.07;;;1.80;;
6376;SDS011;3221;48.858;10.128;2023-05-10T00:04:23;3.93;;;2.03;;
6376;SDS011;3221;48.858;10.128;2023-05-10T00:06:53;2.53;;;1.90;;
6376;SDS011;3221;48.858;10.128;2023-05-10T00:09:21;2.43;;;1.53;;
6376;SDS011;3221;48.858;10.128;2023-05-10T00:11:47;2.87;;;2.30;;
6376;SDS011;3221;48.858;10.128;2023-05-10T00:14:14;5.20;;;2.40;;
6376;SDS011;3221;48.858;10.128;2023-05-10T00:16:41;4.67;;;2.43;;
6376;SDS011;3221;48.858;10.128;2023-05-10T00:19:08;5.33;;;2.80;;
6376;SDS011;3221;48.858;10.128;2023-05-10T00:21:35;3.33;;;2.23;;
6376;SDS011;3221;48.858;10.128;2023-05-10T00:24:02;3.83;;;2.50;;
6376;SDS011;3221;48.858;10.128;2023-05-10T00:26:29;3.70;;;2.40;;
6376;SDS011;3221;48.858;10.128;2023-05-10T00:28:55;3.47;;;2.20;;
6376;SDS011;3221;48.858;10.128;2023-05-10T00:31:23;1.63;;;1.53;;
6376;SDS011;3221;48.858;10.128;2023-05-10T00:33:50;2.63;;;1.57;;
6376;SDS011;3221;48.858;10.128;2023-05-10T00:36:16;1.40;;;1.30;;
6376;SDS011;3221;48.858;10.128;2023-05-10T00:38:43;3.93;;;1.60;;
6376;SDS011;3221;48.858;10.128;2023-05-10T00:41:10;3.83;;;1.40;;
6376;SDS011;3221;48.858;10.128;2023-05-10T00:43:38;2.23;;;1.60;;
6376;SDS011;3221;48.858;10.128;2023-05-10T00:46:05;1.60;;;1.47;;
6376;SDS011;3221;48.858;10.128;2023-05-10T00:48:32;1.50;;;1.40;;
6376;SDS011;3221;48.858;10.128;2023-05-10T00:51:00;1.60;;;1.30;;
6376;SDS011;3221;48.858;10.128;2023-05-10T00:53:28;2.43;;;1.30;;
6376;SDS011;3221;48.858;10.128;2023-05-10T00:55:58;2.00;;;1.63;;
6376;SDS011;3221;48.858;10.128;2023-05-10T00:58:26;3.30;;;1.70;;
6376;SDS011;3221;48.858;10.128;2023-05-10T01:00:57;2.77;;;1.50;;
6376;SDS011;3221;48.858;10.128;2023-05-10T01:03:25;1.83;;;1.70;;
6376;SDS011;3221;48.858;10.128;2023-05-10T01:05:52;4.33;;;1.70;;
6376;SDS011;3221;48.858;10.128;2023-05-10T01:08:18;1.93;;;1.73;;
6376;SDS011;3221;48.858;10.128;2023-05-10T01:10:46;1.63;;;1.40;;
6376;SDS011;3221;48.858;10.128;2023-05-10T01:13:18;3.03;;;2.30;;
6376;SDS011;3221;48.858;10.128;2023-05-10T01:15:52;3.13;;;2.30;;
6376;SDS011;3221;48.858;10.128;2023-05-10T01:18:19;2.77;;;2.23;;
6376;SDS011;3221;48.858;10.128;2023-05-10T01:20:48;2.80;;;2.00;;
6376;SDS011;3221;48.858;10.128;2023-05-10T01:37:27;3.73;;;1.10;;
6376;SDS011;3221;48.858;10.128;2023-05-10T01:43:04;1.50;;;0.90;;
6376;SDS011;3221;48.858;10.128;2023-05-10T01:46:23;0.90;;;0.90;;
6376;SDS011;3221;48.858;10.128;2023-05-10T01:48:27;1.10;;;0.80;;
6376;SDS011;3221;48.858;10.128;2023-05-10T01:50:56;1.10;;;1.00;;
6376;SDS011;3221;48.858;10.128;2023-05-10T01:53:25;1.10;;;1.00;;
6376;SDS011;3221;48.858;10.128;2023-05-10T01:55:53;1.13;;;1.03;;
6376;SDS011;3221;48.858;10.128;2023-05-10T01:58:23;3.60;;;1.50;;
6376;SDS011;3221;48.858;10.128;2023-05-10T02:00:54;1.07;;;1.00;;
6376;SDS011;3221;48.858;10.128;2023-05-10T02:03:23;1.13;;;0.80;;
6376;SDS011;3221;48.858;10.128;2023-05-10T02:05:52;2.60;;;1.47;;
6376;SDS011;3221;48.858;10.128;2023-05-10T02:08:21;1.73;;;1.30;;
6376;SDS011;3221;48.858;10.128;2023-05-10T02:10:50;1.97;;;1.10;;
6376;SDS011;3221;48.858;10.128;2023-05-10T02:13:19;0.70;;;0.70;;
6376;SDS011;3221;48.858;10.128;2023-05-10T02:15:49;1.00;;;0.90;;
6376;SDS011;3221;48.858;10.128;2023-05-10T02:18:17;2.13;;;0.90;;
6376;SDS011;3221;48.858;10.128;2023-05-10T02:20:45;0.87;;;0.87;;
6376;SDS011;3221;48.858;10.128;2023-05-10T02:23:14;1.60;;;0.80;;
6376;SDS011;3221;48.858;10.128;2023-05-10T02:25:43;3.33;;;1.30;;
6376;SDS011;3221;48.858;10.128;2023-05-10T02:28:12;2.23;;;1.10;;
6376;SDS011;3221;48.858;10.128;2023-05-10T02:30:41;1.40;;;1.00;;
6376;SDS011;3221;48.858;10.128;2023-05-10T02:33:09;1.73;;;0.90;;
6376;SDS011;3221;48.858;10.128;2023-05-10T02:35:37;3.17;;;2.03;;
6376;SDS011;3221;48.858;10.128;2023-05-10T02:38:05;2.00;;;1.50;;
6376;SDS011;3221;48.858;10.128;2023-05-10T02:40:33;1.10;;;1.00;;
6376;SDS011;3221;48.858;10.128;2023-05-10T02:43:03;3.37;;;1.23;;
6376;SDS011;3221;48.858;10.128;2023-05-10T02:45:32;0.80;;;0.80;;
6376;SDS011;3221;48.858;10.128;2023-05-10T02:48:01;0.80;;;0.80;;
6376;SDS011;3221;48.858;10.128;2023-05-10T02:50:29;3.23;;;0.80;;
6376;SDS011;3221;48.858;10.128;2023-05-10T02:53:01;0.77;;;0.70;;
6376;SDS011;3221;48.858;10.128;2023-05-10T02:55:36;0.60;;;0.60;;
6376;SDS011;3221;48.858;10.128;2023-05-10T02:58:06;0.70;;;0.70;;
6376;SDS011;3221;48.858;10.128;2023-05-10T03:00:33;0.70;;;0.70;;
6376;SDS011;3221;48.858;10.128;2023-05-10T03:03:00;1.57;;;0.80;;
6376;SDS011;3221;48.858;10.128;2023-05-10T03:05:27;0.87;;;0.87;;
6376;SDS011;3221;48.858;10.128;2023-05-10T03:07:58;2.47;;;1.40;;
6376;SDS011;3221;48.858;10.128;2023-05-10T03:10:27;4.10;;;1.97;;
6376;SDS011;3221;48.858;10.128;2023-05-10T03:18:09;2.83;;;1.50;;
6376;SDS011;3221;48.858;10.128;2023-05-10T03:20:42;1.60;;;1.50;;
6376;SDS011;3221;48.858;10.128;2023-05-10T03:23:30;1.93;;;1.83;;
6376;SDS011;3221;48.858;10.128;2023-05-10T03:25:59;2.90;;;2.00;;
6376;SDS011;3221;48.858;10.128;2023-05-10T03:28:26;1.60;;;1.50;;
6376;SDS011;3221;48.858;10.128;2023-05-10T03:30:54;3.17;;;1.70;;
6376;SDS011;3221;48.858;10.128;2023-05-10T03:33:23;1.60;;;1.50;;
6376;SDS011;3221;48.858;10.128;2023-05-10T03:35:50;2.57;;;1.47;;
6376;SDS011;3221;48.858;10.128;2023-05-10T03:38:17;2.40;;;1.43;;
6376;SDS011;3221;48.858;10.128;2023-05-10T03:40:44;2.40;;;1.30;;
6376;SDS011;3221;48.858;10.128;2023-05-10T03:43:11;1.50;;;1.40;;
6376;SDS011;3221;48.858;10.128;2023-05-10T03:45:38;2.03;;;1.43;;
6376;SDS011;3221;48.858;10.128;2023-05-10T03:48:06;1.60;;;1.50;;
6376;SDS011;3221;48.858;10.128;2023-05-10T03:50:32;1.60;;;1.50;;
6376;SDS011;3221;48.858;10.128;2023-05-10T03:52:59;1.73;;;1.63;;
6376;SDS011;3221;48.858;10.128;2023-05-10T03:55:27;2.23;;;1.60;;
6376;SDS011;3221;48.858;10.128;2023-05-10T03:57:55;1.50;;;1.40;;
6376;SDS011;3221;48.858;10.128;2023-05-10T04:00:23;2.13;;;1.60;;
6376;SDS011;3221;48.858;10.128;2023-05-10T04:02:53;1.60;;;1.50;;
6376;SDS011;3221;48.858;10.128;2023-05-10T04:05:20;2.13;;;1.47;;
6376;SDS011;3221;48.858;10.128;2023-05-10T04:07:47;2.30;;;1.90;;
6376;SDS011;3221;48.858;10.128;2023-05-10T04:10:15;2.30;;;2.10;;
6376;SDS011;3221;48.858;10.128;2023-05-10T04:12:43;4.97;;;2.00;;
6376;SDS011;3221;48.858;10.128;2023-05-10T04:15:10;3.53;;;2.30;;
6376;SDS011;3221;48.858;10.128;2023-05-10T04:17:37;2.30;;;2.10;;
6376;SDS011;3221;48.858;10.128;2023-05-10T04:20:04;2.07;;;1.87;;
6376;SDS011;3221;48.858;10.128;2023-05-10T04:22:31;3.03;;;2.40;;
6376;SDS011;3221;48.858;10.128;2023-05-10T04:24:58;2.90;;;2.43;;
6376;SDS011;3221;48.858;10.128;2023-05-10T04:27:25;2.87;;;2.40;;
6376;SDS011;3221;48.858;10.128;2023-05-10T04:29:52;2.57;;;2.37;;
6376;SDS011;3221;48.858;10.128;2023-05-10T04:32:19;3.37;;;2.23;;
6376;SDS011;3221;48.858;10.128;2023-05-10T04:34:46;5.33;;;2.77;;
6376;SDS011;3221;48.858;10.128;2023-05-10T04:37:13;3.37;;;2.73;;
6376;SDS011;3221;48.858;10.128;2023-05-10T04:39:40;3.40;;;3.10;;
6376;SDS011;3221;48.858;10.128;2023-05-10T04:42:08;5.07;;;3.23;;
6376;SDS011;3221;48.858;10.128;2023-05-10T04:44:35;5.13;;;3.60;;
6376;SDS011;3221;48.858;10.128;2023-05-10T04:47:02;6.93;;;3.90;;
6376;SDS011;3221;48.858;10.128;2023-05-10T04:49:29;5.87;;;3.77;;
6376;SDS011;3221;48.858;10.128;2023-05-10T04:51:56;4.17;;;3.07;;
6376;SDS011;3221;48.858;10.128;2023-05-10T04:54:23;3.47;;;3.00;;
6376;SDS011;3221;48.858;10.128;2023-05-10T04:56:50;2.63;;;2.43;;
6376;SDS011;3221;48.858;10.128;2023-05-10T04:59:17;3.00;;;2.70;;
6376;SDS011;3221;48.858;10.128;2023-05-10T05:01:44;3.23;;;2.93;;
6376;SDS011;3221;48.858;10.128;2023-05-10T05:04:11;3.00;;;2.70;;
6376;SDS011;3221;48.858;10.128;2023-05-10T05:06:38;2.87;;;2.60;;
6376;SDS011;3221;48.858;10.128;2023-05-10T05:09:05;3.23;;;2.93;;
6376;SDS011;3221;48.858;10.128;2023-05-10T05:11:32;3.00;;;2.77;;
6376;SDS011;3221;48.858;10.128;2023-05-10T05:13:59;3.47;;;2.90;;
6376;SDS011;3221;48.858;10.128;2023-05-10T05:16:25;3.33;;;3.03;;
6376;SDS011;3221;48.858;10.128;2023-05-10T05:18:52;3.87;;;2.90;;
6376;SDS011;3221;48.858;10.128;2023-05-10T05:21:19;5.23;;;3.37;;
6376;SDS011;3221;48.858;10.128;2023-05-10T05:23:47;3.33;;;2.83;;
6376;SDS011;3221;48.858;10.128;2023-05-10T05:26:14;3.87;;;2.90;;
6376;SDS011;3221;48.858;10.128;2023-05-10T05:28:41;3.83;;;3.07;;
6376;SDS011;3221;48.858;10.128;2023-05-10T05:31:08;4.20;;;3.80;;
6376;SDS011;3221;48.858;10.128;2023-05-10T05:33:35;5.03;;;3.70;;
6376;SDS011;3221;48.858;10.128;2023-05-10T05:36:03;3.43;;;3.13;;
6376;SDS011;3221;48.858;10.128;2023-05-10T05:38:31;4.80;;;2.97;;
6376;SDS011;3221;48.858;10.128;2023-05-10T05:40:58;3.73;;;3.43;;
6376;SDS011;3221;48.858;10.128;2023-05-10T05:43:25;3.57;;;3.27;;
6376;SDS011;3221;48.858;10.128;2023-05-10T05:45:52;3.47;;;3.17;;
6376;SDS011;3221;48.858;10.128;2023-05-10T05:48:24;3.93;;;2.90;;
6376;SDS011;3221;48.858;10.128;2023-05-10T05:50:54;4.40;;;2.97;;
6376;SDS011;3221;48.858;10.128;2023-05-10T05:53:22;3.27;;;2.67;;
6376;SDS011;3221;48.858;10.128;2023-05-10T05:55:56;3.10;;;2.63;;
6376;SDS011;3221;48.858;10.128;2023-05-10T05:58:24;3.37;;;2.80;;
6376;SDS011;3221;48.858;10.128;2023-05-10T06:00:52;3.27;;;2.97;;
6376;SDS011;3221;48.858;10.128;2023-05-10T06:03:19;3.60;;;2.70;;
6376;SDS011;3221;48.858;10.128;2023-05-10T06:05:46;2.90;;;2.50;;
6376;SDS011;3221;48.858;10.128;2023-05-10T06:08:13;3.73;;;2.80;;
6376;SDS011;3221;48.858;10.128;2023-05-10T06:10:40;3.13;;;2.83;;
6376;SDS011;3221;48.858;10.128;2023-05-10T06:13:07;2.30;;;2.20;;
6376;SDS011;3221;48.858;10.128;2023-05-10T06:15:34;2.47;;;2.20;;
6376;SDS011;3221;48.858;10.128;2023-05-10T06:18:01;2.60;;;2.40;;
6376;SDS011;3221;48.858;10.128;2023-05-10T06:20:28;2.70;;;2.30;;
6376;SDS011;3221;48.858;10.128;2023-05-10T06:22:54;2.80;;;2.27;;
6376;SDS011;3221;48.858;10.128;2023-05-10T06:25:21;2.50;;;2.30;;
6376;SDS011;3221;48.858;10.128;2023-05-10T06:27:48;3.17;;;2.47;;
6376;SDS011;3221;48.858;10.128;2023-05-10T06:30:19;2.40;;;2.20;;
6376;SDS011;3221;48.858;10.128;2023-05-10T06:32:46;2.50;;;1.90;;
6376;SDS011;3221;48.858;10.128;2023-05-10T06:35:13;3.23;;;1.80;;
6376;SDS011;3221;48.858;10.128;2023-05-10T06:37:40;2.90;;;1.83;;
6376;SDS011;3221;48.858;10.128;2023-05-10T06:40:07;3.43;;;1.80;;
6376;SDS011;3221;48.858;10.128;2023-05-10T06:42:35;2.83;;;2.00;;
6376;SDS011;3221;48.858;10.128;2023-05-10T06:45:02;3.40;;;2.07;;
6376;SDS011;3221;48.858;10.128;2023-05-10T06:47:29;2.30;;;2.07;;
6376;SDS011;3221;48.858;10.128;2023-05-10T06:49:56;1.80;;;1.70;;
6376;SDS011;3221;48.858;10.128;2023-05-10T06:52:23;1.90;;;1.70;;
6376;SDS011;3221;48.858;10.128;2023-05-10T06:54:50;2.23;;;1.80;;
6376;SDS011;3221;48.858;10.128;2023-05-10T06:57:17;2.37;;;2.20;;
6376;SDS011;3221;48.858;10.128;2023-05-10T07:00:00;2.27;;;1.90;;
6376;SDS011;3221;48.858;10.128;2023-05-10T07:02:27;2.20;;;1.97;;
6376;SDS011;3221;48.858;10.128;2023-05-10T07:04:54;3.90;;;1.90;;
6376;SDS011;3221;48.858;10.128;2023-05-10T07:07:21;2.93;;;1.90;;
6376;SDS011;3221;48.858;10.128;2023-05-10T07:09:48;2.77;;;2.10;;
6376;SDS011;3221;48.858;10.128;2023-05-10T07:12:16;2.50;;;2.30;;
6376;SDS011;3221;48.858;10.128;2023-05-10T07:14:43;2.87;;;2.20;;
6376;SDS011;3221;48.858;10.128;2023-05-10T07:17:10;2.70;;;2.10;;
6376;SDS011;3221;48.858;10.128;2023-05-10T07:19:36;3.60;;;2.50;;
6376;SDS011;3221;48.858;10.128;2023-05-10T07:22:03;3.10;;;2.37;;
6376;SDS011;3221;48.858;10.128;2023-05-10T07:24:31;3.67;;;2.17;;
6376;SDS011;3221;48.858;10.128;2023-05-10T07:26:59;3.00;;;2.40;;
6376;SDS011;3221;48.858;10.128;2023-05-10T07:29:26;3.70;;;2.40;;
6376;SDS011;3221;48.858;10.128;2023-05-10T07:31:53;3.67;;;2.70;;
6376;SDS011;3221;48.858;10.128;2023-05-10T07:34:24;3.93;;;2.70;;
6376;SDS011;3221;48.858;10.128;2023-05-10T07:36:51;3.43;;;2.70;;
6376;SDS011;3221;48.858;10.128;2023-05-10T07:39:18;4.17;;;2.90;;
6376;SDS011;3221;48.858;10.128;2023-05-10T07:41:53;4.53;;;3.13;;
6376;SDS011;3221;48.858;10.128;2023-05-10T07:44:20;4.20;;;3.10;;
6376;SDS011;3221;48.858;10.128;2023-05-10T07:46:47;3.53;;;3.00;;
6376;SDS011;3221;48.858;10.128;2023-05-10T07:49:14;4.30;;;2.37;;
6376;SDS011;3221;48.858;10.128;2023-05-10T07:51:42;3.73;;;2.70;;
6376;SDS011;3221;48.858;10.128;2023-05-10T07:54:09;3.03;;;2.73;;
6376;SDS011;3221;48.858;10.128;2023-05-10T07:56:36;3.83;;;2.60;;
6376;SDS011;3221;48.858;10.128;2023-05-10T07:59:03;3.50;;;2.63;;
6376;SDS011;3221;48.858;10.128;2023-05-10T08:01:33;2.63;;;2.43;;
6376;SDS011;3221;48.858;10.128;2023-05-10T08:04:00;3.00;;;2.70;;
6376;SDS011;3221;48.858;10.128;2023-05-10T08:06:28;3.40;;;3.10;;
6376;SDS011;3221;48.858;10.128;2023-05-10T08:08:56;4.40;;;2.70;;
6376;SDS011;3221;48.858;10.128;2023-05-10T08:11:23;6.47;;;4.70;;
6376;SDS011;3221;48.858;10.128;2023-05-10T08:13:50;5.77;;;5.03;;
6376;SDS011;3221;48.858;10.128;2023-05-10T08:16:17;6.50;;;4.50;;
6376;SDS011;3221;48.858;10.128;2023-05-10T08:18:44;7.67;;;5.13;;
6376;SDS011;3221;48.858;10.128;2023-05-10T08:21:13;7.50;;;5.40;;
6376;SDS011;3221;48.858;10.128;2023-05-10T08:23:41;7.67;;;5.33;;
6376;SDS011;3221;48.858;10.128;2023-05-10T08:26:10;8.23;;;5.27;;
6376;SDS011;3221;48.858;10.128;2023-05-10T08:28:37;7.07;;;5.07;;
6376;SDS011;3221;48.858;10.128;2023-05-10T08:31:04;5.03;;;4.10;;
6376;SDS011;3221;48.858;10.128;2023-05-10T08:33:31;6.50;;;4.37;;
6376;SDS011;3221;48.858;10.128;2023-05-10T08:35:58;5.07;;;3.87;;
6376;SDS011;3221;48.858;10.128;2023-05-10T08:38:25;4.00;;;3.03;;
6376;SDS011;3221;48.858;10.128;2023-05-10T08:40:52;3.73;;;3.00;;
6376;SDS011;3221;48.858;10.128;2023-05-10T08:43:26;4.43;;;2.77;;
6376;SDS011;3221;48.858;10.128;2023-05-10T08:45:55;3.07;;;2.77;;
6376;SDS011;3221;48.858;10.128;2023-05-10T08:48:23;3.90;;;2.43;;
6376;SDS011;3221;48.858;10.128;2023-05-10T08:50:52;4.23;;;2.90;;
6376;SDS011;3221;48.858;10.128;2023-05-10T08:53:21;4.33;;;2.73;;
6376;SDS011;3221;48.858;10.128;2023-05-10T08:55:50;4.27;;;2.97;;
6376;SDS011;3221;48.858;10.128;2023-05-10T08:58:17;4.00;;;2.73;;
6376;SDS011;3221;48.858;10.128;2023-05-10T09:00:45;3.43;;;3.03;;
6376;SDS011;3221;48.858;10.128;2023-05-10T09:03:15;2.73;;;2.47;;
6376;SDS011;3221;48.858;10.128;2023-05-10T09:05:42;2.80;;;2.20;;
6376;SDS011;3221;48.858;10.128;2023-05-10T09:08:10;2.20;;;2.00;;
6376;SDS011;3221;48.858;10.128;2023-05-10T09:10:39;2.10;;;1.90;;
6376;SDS011;3221;48.858;10.128;2023-05-10T09:13:08;2.23;;;1.93;;
6376;SDS011;3221;48.858;10.128;2023-05-10T09:15:37;3.70;;;2.47;;
6376;SDS011;3221;48.858;10.128;2023-05-10T09:18:04;2.77;;;1.97;;
6376;SDS011;3221;48.858;10.128;2023-05-10T09:20:31;1.83;;;1.73;;
6376;SDS011;3221;48.858;10.128;2023-05-10T09:22:58;3.63;;;1.40;;
6376;SDS011;3221;48.858;10.128;2023-05-10T09:25:25;1.80;;;1.70;;
6376;SDS011;3221;48.858;10.128;2023-05-10T09:27:52;3.23;;;1.53;;
6376;SDS011;3221;48.858;10.128;2023-05-10T09:30:26;1.73;;;1.60;;
6376;SDS011;3221;48.858;10.128;2023-05-10T09:32:54;1.70;;;1.40;;
6376;SDS011;3221;48.858;10.128;2023-05-10T09:35:23;2.23;;;1.60;;
6376;SDS011;3221;48.858;10.128;2023-05-10T09:37:55;1.70;;;1.53;;
6376;SDS011;3221;48.858;10.128;2023-05-10T09:40:24;1.60;;;1.50;;
6376;SDS011;3221;48.858;10.128;2023-05-10T09:45:24;1.80;;;1.70;;
6376;SDS011;3221;48.858;10.128;2023-05-10T09:47:53;2.37;;;1.80;;
6376;SDS011;3221;48.858;10.128;2023-05-10T09:50:20;2.10;;;1.83;;
6376;SDS011;3221;48.858;10.128;2023-05-10T09:55:17;1.97;;;1.87;;
6376;SDS011;3221;48.858;10.128;2023-05-10T09:57:48;3.83;;;2.30;;
6376;SDS011;3221;48.858;10.128;2023-05-10T10:00:24;2.70;;;1.90;;
6376;SDS011;3221;48.858;10.128;2023-05-10T10:02:55;1.93;;;1.80;;
6376;SDS011;3221;48.858;10.128;2023-05-10T10:05:29;2.77;;;1.83;;
6376;SDS011;3221;48.858;10.128;2023-05-10T10:08:02;1.93;;;1.70;;
6376;SDS011;3221;48.858;10.128;2023-05-10T10:10:31;1.80;;;1.40;;
6376;SDS011;3221;48.858;10.128;2023-05-10T10:12:59;1.43;;;1.33;;
6376;SDS011;3221;48.858;10.128;2023-05-10T10:15:26;1.50;;;1.40;;
6376;SDS011;3221;48.858;10.128;2023-05-10T10:17:53;1.97;;;1.10;;
6376;SDS011;3221;48.858;10.128;2023-05-10T10:20:22;2.93;;;1.30;;
6376;SDS011;3221;48.858;10.128;2023-05-10T10:22:49;1.20;;;1.10;;
6376;SDS011;3221;48.858;10.128;2023-05-10T10:25:16;1.50;;;1.40;;
6376;SDS011;3221;48.858;10.128;2023-05-10T10:30:39;1.40;;;1.30;;
6376;SDS011;3221;48.858;10.128;2023-05-10T10:36:07;1.43;;;1.30;;
6376;SDS011;3221;48.858;10.128;2023-05-10T10:38:54;1.50;;;1.40;;
6376;SDS011;3221;48.858;10.128;2023-05-10T10:41:29;1.73;;;1.40;;
6376;SDS011;3221;48.858;10.128;2023-05-10T11:00:20;1.73;;;1.63;;
6376;SDS011;3221;48.858;10.128;2023-05-10T11:03:03;1.80;;;1.70;;
6376;SDS011;3221;48.858;10.128;2023-05-10T11:05:36;1.77;;;1.60;;
6376;SDS011;3221;48.858;10.128;2023-05-10T11:08:21;2.03;;;1.80;;
6376;SDS011;3221;48.858;10.128;2023-05-10T11:13:33;2.63;;;1.50;;
6376;SDS011;3221;48.858;10.128;2023-05-10T11:19:07;1.47;;;1.37;;
6376;SDS011;3221;48.858;10.128;2023-05-10T11:22:11;1.60;;;1.50;;
6376;SDS011;3221;48.858;10.128;2023-05-10T11:24:39;1.40;;;1.30;;
6376;SDS011;3221;48.858;10.128;2023-05-10T11:27:22;3.10;;;1.40;;
6376;SDS011;3221;48.858;10.128;2023-05-10T11:29:52;2.10;;;1.37;;
6376;SDS011;3221;48.858;10.128;2023-05-10T11:32:19;1.13;;;1.13;;
6376;SDS011;3221;48.858;10.128;2023-05-10T11:34:47;1.57;;;1.00;;
6376;SDS011;3221;48.858;10.128;2023-05-10T11:37:14;1.57;;;1.00;;
6376;SDS011;3221;48.858;10.128;2023-05-10T11:39:45;0.90;;;0.90;;
6376;SDS011;3221;48.858;10.128;2023-05-10T11:42:13;0.70;;;0.70;;
6376;SDS011;3221;48.858;10.128;2023-05-10T11:44:40;1.00;;;1.00;;
6376;SDS011;3221;48.858;10.128;2023-05-10T11:47:08;0.80;;;0.80;;
6376;SDS011;3221;48.858;10.128;2023-05-10T11:49:35;0.90;;;0.90;;
6376;SDS011;3221;48.858;10.128;2023-05-10T11:52:05;1.13;;;0.80;;
6376;SDS011;3221;48.858;10.128;2023-05-10T11:54:33;1.17;;;1.07;;
6376;SDS011;3221;48.858;10.128;2023-05-10T11:57:03;1.00;;;0.90;;
6376;SDS011;3221;48.858;10.128;2023-05-10T11:59:30;2.37;;;1.10;;
6376;SDS011;3221;48.858;10.128;2023-05-10T12:01:57;2.50;;;1.20;;
6376;SDS011;3221;48.858;10.128;2023-05-10T12:04:24;1.87;;;1.20;;
6376;SDS011;3221;48.858;10.128;2023-05-10T12:06:52;2.43;;;1.13;;
6376;SDS011;3221;48.858;10.128;2023-05-10T12:09:19;1.20;;;1.10;;
6376;SDS011;3221;48.858;10.128;2023-05-10T12:12:06;1.60;;;1.50;;
6376;SDS011;3221;48.858;10.128;2023-05-10T12:14:36;1.30;;;1.20;;
6376;SDS011;3221;48.858;10.128;2023-05-10T12:17:03;1.73;;;1.60;;
6376;SDS011;3221;48.858;10.128;2023-05-10T12:19:39;2.10;;;1.30;;
6376;SDS011;3221;48.858;10.128;2023-05-10T12:22:06;2.13;;;1.50;;
6376;SDS011;3221;48.858;10.128;2023-05-10T12:24:36;1.73;;;1.47;;
6376;SDS011;3221;48.858;10.128;2023-05-10T12:27:04;2.03;;;1.67;;
6376;SDS011;3221;48.858;10.128;2023-05-10T12:29:34;1.60;;;1.50;;
6376;SDS011;3221;48.858;10.128;2023-05-10T12:32:01;2.43;;;1.40;;
6376;SDS011;3221;48.858;10.128;2023-05-10T12:34:33;1.50;;;1.40;;
6376;SDS011;3221;48.858;10.128;2023-05-10T12:37:02;2.03;;;1.33;;
6376;SDS011;3221;48.858;10.128;2023-05-10T12:39:39;1.07;;;1.07;;
6376;SDS011;3221;48.858;10.128;2023-05-10T12:42:07;1.23;;;1.10;;
6376;SDS011;3221;48.858;10.128;2023-05-10T12:44:34;1.17;;;1.00;;
6376;SDS011;3221;48.858;10.128;2023-05-10T12:47:01;1.30;;;1.00;;
6376;SDS011;3221;48.858;10.128;2023-05-10T12:49:28;2.70;;;1.47;;
6376;SDS011;3221;48.858;10.128;2023-05-10T12:51:55;2.67;;;1.50;;
6376;SDS011;3221;48.858;10.128;2023-05-10T12:54:22;2.47;;;1.53;;
6376;SDS011;3221;48.858;10.128;2023-05-10T12:56:49;3.30;;;1.30;;
6376;SDS011;3221;48.858;10.128;2023-05-10T12:59:15;2.40;;;1.20;;
6376;SDS011;3221;48.858;10.128;2023-05-10T13:01:42;2.50;;;1.60;;
6376;SDS011;3221;48.858;10.128;2023-05-10T13:04:09;1.60;;;1.37;;
6376;SDS011;3221;48.858;10.128;2023-05-10T13:06:36;1.97;;;1.37;;
6376;SDS011;3221;48.858;10.128;2023-05-10T13:09:03;3.70;;;1.30;;
6376;SDS011;3221;48.858;10.128;2023-05-10T13:11:30;3.63;;;1.30;;
6376;SDS011;3221;48.858;10.128;2023-05-10T13:13:57;2.57;;;1.20;;
6376;SDS011;3221;48.858;10.128;2023-05-10T13:16:24;1.83;;;1.37;;
6376;SDS011;3221;48.858;10.128;2023-05-10T13:18:51;2.97;;;1.70;;
6376;SDS011;3221;48.858;10.128;2023-05-10T13:21:18;2.53;;;1.50;;
6376;SDS011;3221;48.858;10.128;2023-05-10T13:23:45;1.20;;;1.20;;
6376;SDS011;3221;48.858;10.128;2023-05-10T13:26:13;2.40;;;1.33;;
6376;SDS011;3221;48.858;10.128;2023-05-10T13:28:39;2.07;;;1.50;;
6376;SDS011;3221;48.858;10.128;2023-05-10T13:31:07;2.53;;;1.77;;
6376;SDS011;3221;48.858;10.128;2023-05-10T13:33:34;1.90;;;1.57;;
6376;SDS011;3221;48.858;10.128;2023-05-10T13:36:01;1.97;;;1.47;;
6376;SDS011;3221;48.858;10.128;2023-05-10T13:38:27;1.77;;;1.50;;
6376;SDS011;3221;48.858;10.128;2023-05-10T13:40:54;1.57;;;1.47;;
6376;SDS011;3221;48.858;10.128;2023-05-10T13:43:21;2.47;;;1.50;;
6376;SDS011;3221;48.858;10.128;2023-05-10T13:45:48;1.50;;;1.40;;
6376;SDS011;3221;48.858;10.128;2023-05-10T13:48:15;2.50;;;1.60;;
6376;SDS011;3221;48.858;10.128;2023-05-10T13:50:42;1.90;;;1.30;;
6376;SDS011;3221;48.858;10.128;2023-05-10T13:53:09;4.10;;;1.60;;
6376;SDS011;3221;48.858;10.128;2023-05-10T13:55:36;3.13;;;2.23;;
6376;SDS011;3221;48.858;10.128;2023-05-10T13:58:03;2.63;;;2.07;;
6376;SDS011;3221;48.858;10.128;2023-05-10T14:00:30;4.97;;;1.90;;
6376;SDS011;3221;48.858;10.128;2023-05-10T14:02:58;2.83;;;1.90;;
6376;SDS011;3221;48.858;10.128;2023-05-10T14:05:25;2.67;;;1.60;;
6376;SDS011;3221;48.858;10.128;2023-05-10T14:07:52;3.23;;;1.97;;
6376;SDS011;3221;48.858;10.128;2023-05-10T14:10:20;4.17;;;2.30;;
6376;SDS011;3221;48.858;10.128;2023-05-10T14:12:46;5.40;;;2.40;;
6376;SDS011;3221;48.858;10.128;2023-05-10T14:15:13;5.13;;;2.60;;
6376;SDS011;3221;48.858;10.128;2023-05-10T14:17:41;5.80;;;2.50;;
6376;SDS011;3221;48.858;10.128;2023-05-10T14:20:08;3.63;;;2.50;;
6376;SDS011;3221;48.858;10.128;2023-05-10T14:22:35;5.00;;;2.30;;
6376;SDS011;3221;48.858;10.128;2023-05-10T14:25:02;3.60;;;1.90;;
6376;SDS011;3221;48.858;10.128;2023-05-10T14:27:29;4.13;;;2.00;;
6376;SDS011;3221;48.858;10.128;2023-05-10T14:29:56;3.60;;;2.10;;
6376;SDS011;3221;48.858;10.128;2023-05-10T14:32:23;4.30;;;2.20;;
6376;SDS011;3221;48.858;10.128;2023-05-10T14:34:50;2.57;;;1.90;;
6376;SDS011;3221;48.858;10.128;2023-05-10T14:37:17;3.53;;;1.90;;
6376;SDS011;3221;48.858;10.128;2023-05-10T14:39:44;2.33;;;2.13;;
6376;SDS011;3221;48.858;10.128;2023-05-10T14:42:11;3.00;;;2.03;;
6376;SDS011;3221;48.858;10.128;2023-05-10T14:44:38;4.63;;;2.40;;
6376;SDS011;3221;48.858;10.128;2023-05-10T14:47:05;2.10;;;1.90;;
6376;SDS011;3221;48.858;10.128;2023-05-10T14:49:31;5.17;;;1.80;;
6376;SDS011;3221;48.858;10.128;2023-05-10T14:51:58;2.27;;;1.87;;
6376;SDS011;3221;48.858;10.128;2023-05-10T14:54:25;2.50;;;1.80;;
6376;SDS011;3221;48.858;10.128;2023-05-10T14:56:52;2.20;;;1.87;;
6376;SDS011;3221;48.858;10.128;2023-05-10T14:59:19;3.80;;;2.10;;
6376;SDS011;3221;48.858;10.128;2023-05-10T15:01:46;5.03;;;2.60;;
6376;SDS011;3221;48.858;10.128;2023-05-10T15:04:14;4.43;;;2.40;;
6376;SDS011;3221;48.858;10.128;2023-05-10T15:06:43;4.20;;;2.53;;
6376;SDS011;3221;48.858;10.128;2023-05-10T15:09:10;6.67;;;2.63;;
6376;SDS011;3221;48.858;10.128;2023-05-10T15:11:36;3.43;;;2.20;;
6376;SDS011;3221;48.858;10.128;2023-05-10T15:14:03;3.10;;;2.20;;
6376;SDS011;3221;48.858;10.128;2023-05-10T15:16:30;5.10;;;2.33;;
6376;SDS011;3221;48.858;10.128;2023-05-10T15:19:01;6.30;;;2.13;;
6376;SDS011;3221;48.858;10.128;2023-05-10T15:21:28;5.63;;;2.53;;
6376;SDS011;3221;48.858;10.128;2023-05-10T15:23:55;6.17;;;2.63;;
6376;SDS011;3221;48.858;10.128;2023-05-10T15:26:22;4.20;;;2.50;;
6376;SDS011;3221;48.858;10.128;2023-05-10T15:28:50;5.10;;;2.60;;
6376;SDS011;3221;48.858;10.128;2023-05-10T15:31:17;5.03;;;2.83;;
6376;SDS011;3221;48.858;10.128;2023-05-10T15:33:43;2.63;;;2.33;;
6376;SDS011;3221;48.858;10.128;2023-05-10T15:36:10;5.00;;;2.20;;
6376;SDS011;3221;48.858;10.128;2023-05-10T15:38:37;4.80;;;2.50;;
6376;SDS011;3221;48.858;10.128;2023-05-10T15:41:04;3.60;;;2.27;;
6376;SDS011;3221;48.858;10.128;2023-05-10T15:43:31;2.63;;;2.10;;
6376;SDS011;3221;48.858;10.128;2023-05-10T15:45:58;3.33;;;2.33;;
6376;SDS011;3221;48.858;10.128;2023-05-10T15:48:25;4.07;;;2.33;;
6376;SDS011;3221;48.858;10.128;2023-05-10T15:50:52;6.13;;;2.57;;
6376;SDS011;3221;48.858;10.128;2023-05-10T15:53:18;4.33;;;2.43;;
6376;SDS011;3221;48.858;10.128;2023-05-10T15:55:45;4.20;;;2.63;;
6376;SDS011;3221;48.858;10.128;2023-05-10T15:58:12;5.30;;;2.80;;
6376;SDS011;3221;48.858;10.128;2023-05-10T16:00:39;5.80;;;2.73;;
6376;SDS011;3221;48.858;10.128;2023-05-10T16:03:06;5.27;;;2.70;;